createdAt,value
2018-08-28T00:01:36.412Z,46.60
2018-08-28T00:04:04.505Z,46.90
2018-08-28T00:06:32.634Z,46.70
2018-08-28T00:09:00.691Z,46.80
2018-08-28T00:11:28.775Z,47.00
2018-08-28T00:13:56.854Z,47.00
2018-08-28T00:16:24.946Z,47.10
2018-08-28T00:18:53.026Z,46.90
2018-08-28T00:21:21.109Z,46.90
2018-08-28T00:23:49.204Z,47.10
2018-08-28T00:26:17.304Z,47.00
2018-08-28T00:28:45.425Z,47.00
2018-08-28T00:31:13.525Z,47.00
2018-08-28T00:33:41.705Z,47.10
2018-08-28T00:36:09.871Z,47.00
2018-08-28T00:38:37.943Z,47.00
2018-08-28T00:41:06.216Z,47.10
2018-08-28T00:43:34.327Z,47.10
2018-08-28T00:46:02.389Z,47.00
2018-08-28T00:48:30.470Z,47.00
2018-08-28T00:50:58.567Z,47.10
2018-08-28T00:53:26.654Z,47.20
2018-08-28T00:55:54.735Z,47.40
2018-08-28T00:58:22.817Z,47.40
2018-08-28T01:00:50.921Z,47.50
2018-08-28T01:03:19.009Z,47.40
2018-08-28T01:05:47.131Z,47.40
2018-08-28T01:08:15.266Z,47.40
2018-08-28T01:10:43.492Z,47.30
2018-08-28T01:13:11.638Z,47.20
2018-08-28T01:15:39.739Z,47.40
2018-08-28T01:18:08.061Z,47.30
2018-08-28T01:20:36.228Z,47.20
2018-08-28T01:23:04.332Z,47.30
2018-08-28T01:25:32.416Z,47.50
2018-08-28T01:28:00.534Z,47.40
2018-08-28T01:30:32.729Z,47.20
2018-08-28T01:33:01.472Z,47.40
2018-08-28T01:35:29.545Z,47.50
2018-08-28T01:37:57.616Z,47.30
2018-08-28T01:40:25.720Z,47.40
2018-08-28T01:42:53.825Z,47.40
2018-08-28T01:45:21.914Z,47.50
2018-08-28T01:47:49.976Z,47.60
2018-08-28T01:50:18.087Z,47.40
2018-08-28T01:52:46.200Z,47.40
2018-08-28T01:55:14.317Z,47.70
2018-08-28T01:57:42.497Z,47.40
2018-08-28T02:00:10.633Z,47.70
2018-08-28T02:02:38.894Z,47.70
2018-08-28T02:05:07.393Z,47.70
2018-08-28T02:07:35.564Z,47.50
2018-08-28T02:10:03.677Z,47.70
2018-08-28T02:12:31.803Z,47.50
2018-08-28T02:14:59.864Z,48.20
2018-08-28T02:17:27.945Z,47.50
2018-08-28T02:19:56.014Z,47.60
2018-08-28T02:22:24.079Z,47.50
2018-08-28T02:24:52.163Z,47.70
2018-08-28T02:27:20.257Z,47.70
2018-08-28T02:29:48.350Z,47.50
2018-08-28T02:32:16.453Z,47.60
2018-08-28T02:34:44.557Z,47.60
2018-08-28T02:37:12.667Z,47.90
2018-08-28T02:39:41.808Z,47.70
2018-08-28T02:42:09.900Z,48.00
2018-08-28T02:44:37.972Z,47.90
2018-08-28T02:47:06.356Z,47.70
2018-08-28T02:49:34.447Z,47.70
2018-08-28T02:52:02.575Z,47.70
2018-08-28T02:54:30.672Z,47.70
2018-08-28T02:56:58.756Z,47.90
2018-08-28T02:59:26.947Z,47.80
2018-08-28T03:01:55.026Z,47.60
2018-08-28T03:04:23.104Z,47.70
2018-08-28T03:06:51.178Z,47.80
2018-08-28T03:09:19.383Z,47.80
2018-08-28T03:11:47.529Z,47.90
2018-08-28T03:14:15.664Z,47.90
2018-08-28T03:16:43.772Z,47.80
2018-08-28T03:19:11.914Z,48.00
2018-08-28T03:21:40.071Z,48.10
2018-08-28T03:24:08.145Z,48.00
2018-08-28T03:26:36.265Z,47.90
2018-08-28T03:29:04.465Z,47.80
2018-08-28T03:31:32.453Z,47.90
2018-08-28T03:34:01.159Z,48.20
2018-08-28T03:36:29.262Z,48.70
2018-08-28T03:38:58.383Z,47.90
2018-08-28T03:41:26.465Z,47.80
2018-08-28T03:43:54.662Z,47.90
2018-08-28T03:46:22.749Z,48.00
2018-08-28T03:48:50.886Z,48.00
2018-08-28T03:51:18.969Z,48.10
2018-08-28T03:53:47.060Z,48.00
2018-08-28T03:56:15.190Z,48.00
2018-08-28T03:58:43.351Z,48.20
2018-08-28T04:01:11.437Z,48.20
2018-08-28T04:03:39.600Z,48.20
2018-08-28T04:06:07.625Z,48.00
2018-08-28T04:08:35.717Z,48.10
2018-08-28T04:11:03.793Z,48.40
2018-08-28T04:13:31.883Z,48.10
2018-08-28T04:15:59.973Z,48.20
2018-08-28T04:18:28.067Z,48.00
2018-08-28T04:20:56.144Z,48.10
2018-08-28T04:23:24.221Z,49.00
2018-08-28T04:25:52.309Z,48.40
2018-08-28T04:28:20.400Z,48.20
2018-08-28T04:30:48.554Z,48.20
2018-08-28T04:33:16.611Z,48.20
2018-08-28T04:35:44.733Z,48.20
2018-08-28T04:38:12.868Z,48.30
2018-08-28T04:40:40.948Z,48.80
2018-08-28T04:43:09.038Z,48.30
2018-08-28T04:45:37.142Z,48.30
2018-08-28T04:48:05.226Z,48.30
2018-08-28T04:50:33.316Z,48.40
2018-08-28T04:53:01.409Z,48.60
2018-08-28T04:55:29.501Z,48.60
2018-08-28T04:57:57.612Z,48.50
2018-08-28T05:00:25.716Z,48.40
2018-08-28T05:02:53.829Z,48.40
2018-08-28T05:05:22.061Z,48.40
2018-08-28T05:07:50.121Z,49.00
2018-08-28T05:10:18.240Z,48.40
2018-08-28T05:12:46.372Z,48.40
2018-08-28T05:15:14.529Z,48.40
2018-08-28T05:17:42.746Z,48.60
2018-08-28T05:20:10.878Z,48.60
2018-08-28T05:22:39.114Z,48.60
2018-08-28T05:25:07.259Z,48.70
2018-08-28T05:27:35.426Z,48.70
2018-08-28T05:30:03.505Z,48.50
2018-08-28T05:32:31.582Z,48.50
2018-08-28T05:34:59.658Z,48.70
2018-08-28T05:37:27.724Z,48.50
2018-08-28T05:39:55.941Z,48.70
2018-08-28T05:42:24.057Z,49.10
2018-08-28T05:44:52.129Z,49.60
2018-08-28T05:47:20.205Z,48.80
2018-08-28T05:49:48.358Z,48.60
2018-08-28T05:52:16.537Z,48.70
2018-08-28T05:54:44.720Z,48.70
2018-08-28T05:57:12.965Z,48.90
2018-08-28T05:59:41.180Z,49.10
2018-08-28T06:02:09.325Z,49.00
2018-08-28T06:04:37.419Z,48.90
2018-08-28T06:07:05.490Z,48.90
2018-08-28T06:09:33.605Z,49.00
2018-08-28T06:12:01.676Z,49.10
2018-08-28T06:14:29.750Z,49.00
2018-08-28T06:16:57.849Z,48.90
2018-08-28T06:19:25.944Z,49.30
2018-08-28T06:21:54.012Z,49.30
2018-08-28T06:24:22.133Z,49.70
2018-08-28T06:26:50.227Z,49.30
2018-08-28T06:29:18.351Z,49.10
2018-08-28T06:31:46.576Z,49.60
2018-08-28T06:34:14.673Z,49.60
2018-08-28T06:36:42.879Z,50.30
2018-08-28T06:39:11.229Z,49.90
2018-08-28T06:41:39.605Z,50.10
2018-08-28T06:44:07.946Z,48.80
2018-08-28T06:46:36.269Z,49.50
2018-08-28T06:49:04.738Z,49.80
2018-08-28T06:51:32.844Z,49.90
2018-08-28T06:54:00.928Z,50.60
2018-08-28T06:56:29.024Z,49.80
2018-08-28T06:58:57.137Z,49.80
2018-08-28T07:01:25.277Z,50.10
2018-08-28T07:03:53.409Z,49.80
2018-08-28T07:06:21.464Z,50.20
2018-08-28T07:08:49.627Z,49.50
2018-08-28T07:11:17.843Z,50.10
2018-08-28T07:13:45.940Z,49.80
2018-08-28T07:16:14.137Z,49.70
2018-08-28T07:18:42.351Z,49.60
2018-08-28T07:21:10.474Z,49.40
2018-08-28T07:23:38.549Z,49.40
2018-08-28T07:26:06.759Z,49.60
2018-08-28T07:28:34.782Z,49.50
2018-08-28T07:31:02.857Z,49.30
2018-08-28T07:33:30.965Z,49.70
2018-08-28T07:35:59.050Z,49.70
2018-08-28T07:38:27.104Z,49.70
2018-08-28T07:40:55.268Z,49.50
2018-08-28T07:43:23.413Z,49.60
2018-08-28T07:45:51.642Z,49.50
2018-08-28T07:48:19.841Z,50.10
2018-08-28T07:50:47.972Z,49.30
2018-08-28T07:53:16.176Z,49.20
2018-08-28T07:55:44.331Z,49.30
2018-08-28T07:58:12.507Z,49.80
2018-08-28T08:00:40.646Z,49.20
2018-08-28T08:03:08.728Z,49.10
2018-08-28T08:05:36.804Z,49.20
2018-08-28T08:08:04.949Z,49.70
2018-08-28T08:10:33.142Z,49.80
2018-08-28T08:13:01.108Z,49.50
2018-08-28T08:15:29.204Z,49.50
2018-08-28T08:17:57.319Z,50.20
2018-08-28T08:20:25.421Z,49.60
2018-08-28T08:22:53.548Z,50.20
2018-08-28T08:25:21.624Z,50.40
2018-08-28T08:27:49.795Z,49.90
2018-08-28T08:30:17.913Z,50.50
2018-08-28T08:32:46.093Z,50.40
2018-08-28T08:35:14.257Z,50.00
2018-08-28T08:37:42.507Z,49.80
2018-08-28T08:40:10.675Z,49.70
2018-08-28T08:42:38.871Z,49.80
2018-08-28T08:45:06.929Z,49.90
2018-08-28T08:47:35.031Z,49.80
2018-08-28T08:50:03.098Z,49.80
2018-08-28T08:52:31.180Z,50.00
2018-08-28T08:54:59.312Z,50.00
2018-08-28T08:57:27.437Z,50.00
2018-08-28T08:59:55.522Z,50.50
2018-08-28T09:02:23.756Z,50.10
2018-08-28T09:04:51.845Z,50.00
2018-08-28T09:07:19.960Z,49.80
2018-08-28T09:09:48.058Z,49.80
2018-08-28T09:12:16.208Z,49.90
2018-08-28T09:14:44.381Z,49.60
2018-08-28T09:17:12.509Z,49.40
2018-08-28T09:19:40.631Z,49.30
2018-08-28T09:22:08.756Z,49.30
2018-08-28T09:24:36.849Z,49.10
2018-08-28T09:27:05.311Z,48.90
2018-08-28T09:29:33.525Z,49.00
2018-08-28T09:32:01.608Z,48.90
2018-08-28T09:34:29.729Z,48.80
2018-08-28T09:36:57.834Z,49.10
2018-08-28T09:39:25.929Z,48.60
2018-08-28T09:41:54.031Z,48.50
2018-08-28T09:44:22.105Z,48.40
2018-08-28T09:46:50.217Z,48.30
2018-08-28T09:49:18.329Z,48.20
2018-08-28T09:51:46.434Z,48.10
2018-08-28T09:54:14.551Z,48.00
2018-08-28T09:56:42.825Z,48.00
2018-08-28T09:59:11.184Z,47.80
2018-08-28T10:01:43.231Z,47.70
2018-08-28T10:04:12.281Z,47.50
2018-08-28T10:06:40.817Z,47.40
2018-08-28T10:09:11.257Z,47.30
2018-08-28T10:11:39.698Z,47.30
2018-08-28T10:14:07.981Z,47.20
2018-08-28T10:16:36.317Z,47.10
2018-08-28T10:19:04.616Z,47.10
2018-08-28T10:21:32.733Z,47.10
2018-08-28T10:24:01.858Z,47.00
2018-08-28T10:26:29.992Z,47.10
2018-08-28T10:28:58.065Z,47.00
2018-08-28T10:31:26.158Z,47.00
2018-08-28T10:33:54.297Z,46.90
2018-08-28T10:36:22.385Z,46.90
2018-08-28T10:38:50.459Z,46.90
2018-08-28T10:41:18.528Z,46.80
2018-08-28T10:43:46.657Z,46.80
2018-08-28T10:46:14.998Z,46.50
2018-08-28T10:48:43.292Z,46.60
2018-08-28T10:51:11.405Z,46.00
2018-08-28T10:53:39.500Z,46.00
2018-08-28T10:56:07.604Z,46.10
2018-08-28T10:58:35.732Z,46.20
2018-08-28T11:01:03.817Z,46.00
2018-08-28T11:03:31.924Z,45.90
2018-08-28T11:05:59.993Z,45.70
2018-08-28T11:08:28.077Z,45.90
2018-08-28T11:10:56.226Z,46.00
2018-08-28T11:13:24.349Z,45.80
2018-08-28T11:15:52.460Z,45.50
2018-08-28T11:18:20.782Z,44.90
2018-08-28T11:20:48.908Z,45.40
2018-08-28T11:23:17.184Z,45.20
2018-08-28T11:25:45.526Z,45.10
2018-08-28T11:28:13.821Z,45.20
2018-08-28T11:30:42.049Z,45.40
2018-08-28T11:33:10.218Z,45.00
2018-08-28T11:35:38.341Z,44.70
2018-08-28T11:38:06.412Z,45.20
2018-08-28T11:40:34.493Z,44.90
2018-08-28T11:43:02.755Z,44.50
2018-08-28T11:45:30.836Z,43.70
2018-08-28T11:47:58.925Z,43.50
2018-08-28T11:50:27.033Z,44.20
2018-08-28T11:52:55.112Z,43.50
2018-08-28T11:55:23.251Z,43.00
2018-08-28T11:57:51.361Z,43.40
2018-08-28T12:00:19.469Z,42.50
2018-08-28T12:02:47.545Z,42.60
2018-08-28T12:05:15.895Z,42.60
2018-08-28T12:07:44.054Z,43.40
2018-08-28T12:10:12.261Z,43.30
2018-08-28T12:12:40.380Z,42.50
2018-08-28T12:15:08.508Z,42.60
2018-08-28T12:17:37.001Z,42.30
2018-08-28T12:20:05.709Z,42.00
2018-08-28T12:22:33.814Z,42.70
2018-08-28T12:25:01.897Z,42.20
2018-08-28T12:27:29.996Z,42.70
2018-08-28T12:29:58.121Z,42.10
2018-08-28T12:32:26.234Z,42.40
2018-08-28T12:34:54.310Z,42.30
2018-08-28T12:37:22.436Z,42.50
2018-08-28T12:39:50.504Z,42.70
2018-08-28T12:42:18.685Z,43.40
2018-08-28T12:44:46.832Z,43.00
2018-08-28T12:47:15.041Z,43.20
2018-08-28T12:49:43.245Z,43.20
2018-08-28T12:52:11.483Z,43.10
2018-08-28T12:54:39.633Z,43.30
2018-08-28T12:57:07.760Z,43.50
2018-08-28T12:59:35.964Z,43.50
2018-08-28T13:02:04.143Z,43.50
2018-08-28T13:04:32.161Z,43.50
2018-08-28T13:07:00.257Z,43.40
2018-08-28T13:09:28.348Z,43.60
2018-08-28T13:11:56.432Z,43.50
2018-08-28T13:14:24.561Z,43.60
2018-08-28T13:16:52.662Z,43.60
2018-08-28T13:19:20.811Z,43.80
2018-08-28T13:21:49.009Z,43.40
2018-08-28T13:24:17.213Z,43.40
2018-08-28T13:26:45.334Z,43.60
2018-08-28T13:29:13.531Z,43.30
2018-08-28T13:31:41.701Z,43.50
2018-08-28T13:34:09.854Z,43.10
2018-08-28T13:36:37.941Z,43.40
2018-08-28T13:39:06.242Z,43.50
2018-08-28T13:41:34.328Z,43.40
2018-08-28T13:44:02.409Z,43.50
2018-08-28T13:46:30.500Z,43.30
2018-08-28T13:48:58.602Z,43.40
2018-08-28T13:51:26.676Z,43.40
2018-08-28T13:53:54.918Z,43.30
2018-08-28T13:56:23.028Z,43.00
2018-08-28T13:58:51.137Z,43.30
2018-08-28T14:01:19.311Z,43.30
2018-08-28T14:03:47.616Z,43.10
2018-08-28T14:06:15.768Z,42.90
2018-08-28T14:08:43.880Z,43.00
2018-08-28T14:11:12.141Z,42.90
2018-08-28T14:13:40.330Z,43.00
2018-08-28T14:16:08.366Z,43.10
2018-08-28T14:18:36.443Z,43.10
2018-08-28T14:21:04.660Z,43.30
2018-08-28T14:23:32.723Z,43.20
2018-08-28T14:26:00.800Z,43.40
2018-08-28T14:28:28.929Z,43.50
2018-08-28T14:30:57.019Z,43.50
2018-08-28T14:33:25.130Z,43.50
2018-08-28T14:35:53.200Z,43.60
2018-08-28T14:38:21.386Z,43.60
2018-08-28T14:40:49.538Z,43.70
2018-08-28T14:43:17.745Z,43.70
2018-08-28T14:45:45.919Z,43.70
2018-08-28T14:48:14.099Z,43.70
2018-08-28T14:50:42.436Z,43.70
2018-08-28T14:53:11.000Z,43.80
2018-08-28T14:55:39.130Z,43.60
2018-08-28T14:58:07.190Z,43.70
2018-08-28T15:00:35.294Z,43.80
2018-08-28T15:03:03.368Z,43.80
2018-08-28T15:05:31.508Z,43.80
2018-08-28T15:07:59.564Z,43.80
2018-08-28T15:10:27.634Z,43.70
2018-08-28T15:12:55.709Z,43.70
2018-08-28T15:15:23.802Z,43.80
2018-08-28T15:17:51.892Z,44.00
2018-08-28T15:20:20.090Z,43.90
2018-08-28T15:22:48.279Z,44.40
2018-08-28T15:25:16.491Z,44.20
2018-08-28T15:27:44.779Z,44.20
2018-08-28T15:30:12.993Z,44.20
2018-08-28T15:32:41.210Z,44.10
2018-08-28T15:35:09.224Z,44.20
2018-08-28T15:37:37.356Z,44.20
2018-08-28T15:40:05.551Z,44.20
2018-08-28T15:42:33.639Z,44.30
2018-08-28T15:45:01.719Z,44.30
2018-08-28T15:47:29.788Z,44.30
2018-08-28T15:49:57.928Z,44.20
2018-08-28T15:52:26.018Z,44.20
2018-08-28T15:54:54.156Z,44.20
2018-08-28T15:57:22.280Z,44.20
2018-08-28T15:59:50.501Z,44.20
2018-08-28T16:02:18.589Z,44.20
2018-08-28T16:04:46.796Z,44.10
2018-08-28T16:07:14.899Z,44.10
2018-08-28T16:09:43.177Z,44.10
2018-08-28T16:12:11.301Z,44.50
2018-08-28T16:14:39.409Z,43.90
2018-08-28T16:17:07.736Z,43.90
2018-08-28T16:19:35.813Z,43.90
2018-08-28T16:22:04.716Z,43.90
2018-08-28T16:24:32.810Z,43.80
2018-08-28T16:27:00.885Z,43.80
2018-08-28T16:29:28.967Z,43.90
2018-08-28T16:31:57.039Z,43.90
2018-08-28T16:34:25.144Z,44.50
2018-08-28T16:36:53.293Z,43.80
2018-08-28T16:39:21.528Z,43.90
2018-08-28T16:41:49.778Z,43.90
2018-08-28T16:44:18.062Z,43.90
2018-08-28T16:46:46.303Z,44.00
2018-08-28T16:49:14.466Z,44.00
2018-08-28T16:51:42.862Z,44.10
2018-08-28T16:54:11.016Z,44.00
2018-08-28T16:56:39.100Z,44.00
2018-08-28T16:59:07.161Z,44.00
2018-08-28T17:01:35.310Z,44.60
2018-08-28T17:04:03.320Z,44.10
2018-08-28T17:06:31.476Z,43.60
2018-08-28T17:08:59.622Z,44.70
2018-08-28T17:11:27.660Z,44.10
2018-08-28T17:13:55.777Z,44.10
2018-08-28T17:16:24.387Z,44.10
2018-08-28T17:18:52.469Z,44.10
2018-08-28T17:21:20.567Z,44.20
2018-08-28T17:23:48.672Z,44.10
2018-08-28T17:26:16.849Z,44.10
2018-08-28T17:28:45.058Z,44.20
2018-08-28T17:31:13.165Z,44.80
2018-08-28T17:33:41.342Z,44.30
2018-08-28T17:36:09.405Z,44.20
2018-08-28T17:38:37.472Z,44.40
2018-08-28T17:41:05.548Z,44.50
2018-08-28T17:43:33.624Z,44.50
2018-08-28T17:46:01.761Z,44.60
2018-08-28T17:48:29.881Z,44.70
2018-08-28T17:50:58.030Z,44.70
2018-08-28T17:53:26.104Z,45.50
2018-08-28T17:55:54.182Z,44.80
2018-08-28T17:58:22.260Z,44.90
2018-08-28T18:00:50.408Z,44.90
2018-08-28T18:03:18.516Z,45.00
2018-08-28T18:05:46.668Z,45.00
2018-08-28T18:08:14.793Z,45.00
2018-08-28T18:10:43.073Z,45.70
2018-08-28T18:13:11.147Z,45.10
2018-08-28T18:15:39.377Z,45.10
2018-08-28T18:18:07.457Z,45.10
2018-08-28T18:20:35.550Z,45.20
2018-08-28T18:23:03.623Z,45.30
2018-08-28T18:25:31.689Z,45.30
2018-08-28T18:27:59.805Z,45.30
2018-08-28T18:30:27.880Z,45.40
2018-08-28T18:32:55.960Z,45.30
2018-08-28T18:35:24.053Z,45.40
2018-08-28T18:37:52.141Z,45.50
2018-08-28T18:40:20.253Z,45.60
2018-08-28T18:42:48.394Z,45.60
2018-08-28T18:45:16.540Z,45.70
2018-08-28T18:47:44.685Z,45.80
2018-08-28T18:50:12.954Z,45.80
2018-08-28T18:52:41.132Z,45.80
2018-08-28T18:55:09.200Z,45.90
2018-08-28T18:57:37.287Z,46.00
2018-08-28T19:00:05.361Z,46.00
2018-08-28T19:02:33.448Z,46.00
2018-08-28T19:05:01.513Z,46.10
2018-08-28T19:07:29.592Z,46.10
2018-08-28T19:09:57.856Z,46.10
2018-08-28T19:12:26.006Z,46.20
2018-08-28T19:14:54.116Z,46.80
2018-08-28T19:17:22.397Z,46.30
2018-08-28T19:19:50.481Z,46.90
2018-08-28T19:22:18.741Z,46.30
2018-08-28T19:24:46.830Z,46.30
2018-08-28T19:27:14.925Z,46.30
2018-08-28T19:29:43.104Z,46.40
2018-08-28T19:32:11.148Z,46.40
2018-08-28T19:34:39.217Z,46.50
2018-08-28T19:37:07.300Z,46.50
2018-08-28T19:39:35.388Z,47.10
2018-08-28T19:42:03.618Z,46.50
2018-08-28T19:44:31.737Z,46.60
2018-08-28T19:46:59.860Z,46.60
2018-08-28T19:49:27.944Z,46.60
2018-08-28T19:51:56.008Z,46.70
2018-08-28T19:54:24.080Z,46.90
2018-08-28T19:56:52.319Z,46.60
2018-08-28T19:59:20.319Z,46.70
2018-08-28T20:01:48.376Z,46.70
2018-08-28T20:04:16.497Z,46.70
2018-08-28T20:06:44.625Z,46.80
2018-08-28T20:09:12.941Z,46.80
2018-08-28T20:11:41.117Z,46.70
2018-08-28T20:14:09.477Z,46.80
2018-08-28T20:16:37.757Z,46.80
2018-08-28T20:19:05.825Z,46.80
2018-08-28T20:21:33.921Z,46.90
2018-08-28T20:24:01.996Z,46.80
2018-08-28T20:26:30.065Z,46.80
2018-08-28T20:28:58.141Z,47.40
2018-08-28T20:31:26.227Z,46.80
2018-08-28T20:33:54.415Z,47.40
2018-08-28T20:36:22.549Z,46.80
2018-08-28T20:38:50.648Z,46.80
2018-08-28T20:41:18.832Z,47.10
2018-08-28T20:43:47.163Z,46.90
2018-08-28T20:46:15.137Z,46.80
2018-08-28T20:48:43.277Z,46.80
2018-08-28T20:51:11.492Z,46.80
2018-08-28T20:53:39.724Z,46.80
2018-08-28T20:56:07.748Z,46.90
2018-08-28T20:58:35.817Z,46.90
2018-08-28T21:01:03.948Z,47.00
2018-08-28T21:03:32.040Z,47.00
2018-08-28T21:06:00.137Z,46.90
2018-08-28T21:08:28.264Z,47.00
2018-08-28T21:10:56.332Z,47.00
2018-08-28T21:13:24.435Z,47.00
2018-08-28T21:15:52.521Z,46.90
2018-08-28T21:18:20.601Z,47.00
2018-08-28T21:20:48.677Z,47.00
2018-08-28T21:23:16.785Z,47.00
2018-08-28T21:25:44.880Z,46.90
2018-08-28T21:28:13.037Z,47.00
2018-08-28T21:30:41.156Z,47.00
2018-08-28T21:33:09.233Z,47.00
2018-08-28T21:35:37.317Z,47.10
2018-08-28T21:38:05.428Z,47.00
2018-08-28T21:40:33.569Z,47.00
2018-08-28T21:43:01.669Z,47.00
2018-08-28T21:45:29.751Z,47.00
2018-08-28T21:47:57.825Z,47.00
2018-08-28T21:50:25.896Z,47.00
2018-08-28T21:52:53.984Z,47.10
2018-08-28T21:55:22.078Z,47.10
2018-08-28T21:57:50.155Z,47.20
2018-08-28T22:00:18.284Z,47.20
2018-08-28T22:02:46.474Z,47.10
2018-08-28T22:05:14.623Z,47.00
2018-08-28T22:07:43.058Z,47.10
2018-08-28T22:10:11.266Z,47.10
2018-08-28T22:12:39.348Z,47.10
2018-08-28T22:15:13.298Z,47.70
2018-08-28T22:17:41.894Z,47.10
2018-08-28T22:20:10.408Z,47.00
2018-08-28T22:22:38.507Z,47.00
2018-08-28T22:25:06.840Z,47.00
2018-08-28T22:27:34.957Z,47.60
2018-08-28T22:30:03.128Z,47.00
2018-08-28T22:32:31.221Z,47.80
2018-08-28T22:34:59.332Z,47.20
2018-08-28T22:37:27.449Z,47.20
2018-08-28T22:39:55.573Z,47.10
2018-08-28T22:42:23.696Z,47.10
2018-08-28T22:44:51.869Z,47.10
2018-08-28T22:47:19.982Z,47.00
2018-08-28T22:49:48.061Z,47.00
2018-08-28T22:52:16.178Z,47.10
2018-08-28T22:54:44.342Z,47.00
2018-08-28T22:57:12.453Z,47.10
2018-08-28T22:59:40.616Z,47.10
2018-08-28T23:02:08.732Z,47.00
2018-08-28T23:04:36.796Z,47.00
2018-08-28T23:07:05.070Z,47.10
2018-08-28T23:09:33.136Z,47.00
2018-08-28T23:12:01.297Z,47.00
2018-08-28T23:14:29.369Z,47.00
2018-08-28T23:16:57.473Z,47.10
2018-08-28T23:19:25.548Z,47.00
2018-08-28T23:21:53.633Z,47.00
2018-08-28T23:24:21.708Z,47.00
2018-08-28T23:26:49.811Z,47.00
2018-08-28T23:29:17.896Z,47.00
2018-08-28T23:31:46.074Z,47.10
2018-08-28T23:34:14.203Z,47.00
2018-08-28T23:36:42.309Z,47.00
2018-08-28T23:39:10.393Z,47.00
2018-08-28T23:41:38.504Z,47.00
2018-08-28T23:44:06.624Z,47.00
2018-08-28T23:46:34.708Z,46.90
2018-08-28T23:49:02.817Z,46.90
2018-08-28T23:51:30.920Z,46.90
2018-08-28T23:53:59.048Z,47.00
2018-08-28T23:56:27.141Z,47.00
2018-08-28T23:58:55.232Z,47.00
